Time;durP1;ratioP1;P1;durP2;ratioP2;P2;SDS_P1;SDS_P2;PMS_P1;PMS_P2;Temp;Humidity;BMP_temperature;BMP_pressure;BME280_temperature;BME280_humidity;BME280_pressure;Samples;Min_cycle;Max_cycle;Signal;HPM_P1;HPM_P2
2022/03/28 00:00:21;;;;;;;13.80;3.60;;;;;;;3.43;100.00;101831.53;4969705;28;20389;-80
2022/03/28 00:02:47;;;;;;;7.53;3.97;;;;;;;3.38;100.00;101830.53;4978449;28;20108;-80
2022/03/28 00:05:17;;;;;;;6.77;3.87;;;;;;;3.45;100.00;101827.25;4990852;28;20058;-80
2022/03/28 00:07:44;;;;;;;6.27;4.00;;;;;;;3.31;100.00;101828.59;4997028;28;20054;-81
2022/03/28 00:10:13;;;;;;;6.03;3.83;;;;;;;3.29;100.00;101827.66;4980297;28;20186;-81
2022/03/28 00:12:43;;;;;;;7.73;3.87;;;;;;;3.22;100.00;101825.72;4980696;28;20034;-81
2022/03/28 00:15:10;;;;;;;5.97;4.00;;;;;;;3.16;100.00;101817.69;4988919;28;20053;-81
2022/03/28 00:17:38;;;;;;;8.67;4.93;;;;;;;3.12;100.00;101819.34;4963896;28;20050;-81
2022/03/28 00:20:09;;;;;;;6.20;3.93;;;;;;;3.08;100.00;101814.88;4962262;28;20054;-81
2022/03/28 00:22:43;;;;;;;6.87;4.20;;;;;;;3.05;100.00;101814.78;4960633;28;20043;-80
2022/03/28 00:25:11;;;;;;;5.93;4.20;;;;;;;3.00;100.00;101809.44;4983297;28;20044;-80
2022/03/28 00:27:39;;;;;;;6.37;3.90;;;;;;;2.95;100.00;101810.16;4979728;28;20053;-81
2022/03/28 00:30:07;;;;;;;6.90;3.90;;;;;;;2.97;100.00;101805.84;4979093;28;20057;-81
2022/03/28 00:32:34;;;;;;;6.03;3.93;;;;;;;2.92;100.00;101804.81;4978640;28;20041;-80
2022/03/28 00:35:04;;;;;;;7.63;3.77;;;;;;;2.84;100.00;101796.78;4972852;28;20161;-80
2022/03/28 00:37:30;;;;;;;6.27;4.20;;;;;;;2.88;100.00;101798.66;4979061;28;20101;-79
2022/03/28 00:40:00;;;;;;;6.73;3.70;;;;;;;2.82;100.00;101790.63;4983507;28;20046;-80
2022/03/28 00:42:27;;;;;;;5.90;3.97;;;;;;;2.77;100.00;101787.88;4962651;28;20110;-81
2022/03/28 00:44:53;;;;;;;7.67;4.20;;;;;;;2.77;100.00;101787.88;4976154;28;20042;-80
2022/03/28 00:47:20;;;;;;;7.13;4.87;;;;;;;2.77;100.00;101787.88;4989057;28;20129;-80
2022/03/28 00:49:46;;;;;;;8.20;4.17;;;;;;;2.74;100.00;101785.19;4976926;28;20046;-80
2022/03/28 00:52:16;;;;;;;7.10;4.10;;;;;;;2.72;100.00;101784.25;4952461;28;20385;-81
2022/03/28 00:54:45;;;;;;;6.60;4.60;;;;;;;2.73;100.00;101778.19;4964099;28;20162;-79
2022/03/28 00:57:12;;;;;;;6.00;3.80;;;;;;;2.70;100.00;101766.81;4978524;28;20262;-79
2022/03/28 00:59:38;;;;;;;8.13;4.43;;;;;;;2.73;100.00;101765.16;4977470;28;20065;-80
2022/03/28 01:02:06;;;;;;;8.23;4.87;;;;;;;2.68;100.00;101769.34;4993015;28;20053;-80
2022/03/28 01:04:33;;;;;;;6.23;4.00;;;;;;;2.72;100.00;101770.34;5026344;23;20017;-79
2022/03/28 01:07:00;;;;;;;5.97;4.10;;;;;;;2.58;100.00;101769.03;5007828;28;20632;-77
2022/03/28 01:09:26;;;;;;;6.33;4.17;;;;;;;2.51;100.00;101761.03;4998069;28;20047;-78
2022/03/28 01:11:54;;;;;;;7.07;4.63;;;;;;;2.45;100.00;101762.59;5006995;28;20042;-78
2022/03/28 01:14:20;;;;;;;10.10;4.47;;;;;;;2.40;100.00;101756.31;5001824;28;20031;-78
2022/03/28 01:19:32;;;;;;;8.97;4.53;;;;;;;2.38;100.00;101742.38;5031914;28;20034;-78
2022/03/28 01:22:02;;;;;;;8.43;4.70;;;;;;;2.31;100.00;101745.63;4999129;28;20042;-77
2022/03/28 01:24:28;;;;;;;7.83;4.60;;;;;;;2.29;100.00;101737.75;4994692;28;20046;-77
2022/03/28 01:26:55;;;;;;;7.57;5.47;;;;;;;2.27;100.00;101734.22;4996205;28;20117;-78
2022/03/28 01:29:22;;;;;;;9.93;5.70;;;;;;;2.23;100.00;101737.56;4994950;28;20561;-78
2022/03/28 01:31:54;;;;;;;8.00;4.50;;;;;;;2.22;100.00;101734.06;4981529;28;20043;-78
2022/03/28 01:34:21;;;;;;;6.13;4.27;;;;;;;2.15;100.00;101734.72;4994488;28;20439;-78
2022/03/28 01:36:48;;;;;;;7.27;5.63;;;;;;;2.13;100.00;101733.78;4977747;28;20065;-78
2022/03/28 01:39:15;;;;;;;8.00;4.50;;;;;;;2.11;100.00;101730.25;4977754;28;20050;-78
2022/03/28 01:41:41;;;;;;;6.97;4.67;;;;;;;2.08;100.00;101724.06;4989980;28;20046;-78
2022/03/28 01:44:08;;;;;;;7.83;5.10;;;;;;;2.03;100.00;101723.94;4973429;28;20575;-78
2022/03/28 01:46:44;;;;;;;8.60;4.90;;;;;;;2.02;100.00;101718.63;4981962;28;20092;-77
2022/03/28 01:49:15;;;;;;;8.70;4.63;;;;;;;2.00;100.00;101717.72;4977387;28;20042;-78
2022/03/28 01:51:42;;;;;;;7.30;5.20;;;;;;;1.98;100.00;101712.47;5010417;28;20044;-78
2022/03/28 01:54:09;;;;;;;6.80;4.83;;;;;;;1.98;100.00;101710.75;4993265;28;20499;-78
2022/03/28 01:56:37;;;;;;;7.53;5.00;;;;;;;1.97;100.00;101711.56;5004379;28;20043;-77
2022/03/28 01:59:05;;;;;;;8.50;5.30;;;;;;;1.97;100.00;101706.38;4993830;28;20063;-78
2022/03/28 02:01:32;;;;;;;8.87;5.23;;;;;;;1.98;100.00;101702.91;4976723;28;20043;-77
2022/03/28 02:03:59;;;;;;;7.93;5.40;;;;;;;2.06;100.00;101707.50;4994825;28;20066;-78
2022/03/28 02:06:26;;;;;;;8.93;5.17;;;;;;;2.01;100.00;101696.91;4993556;28;20046;-77
2022/03/28 02:08:53;;;;;;;11.77;5.83;;;;;;;1.97;100.00;101695.06;5008245;28;20133;-78
2022/03/28 02:11:20;;;;;;;9.40;5.17;;;;;;;1.94;100.00;101697.59;5013497;28;20042;-77
2022/03/28 02:13:46;;;;;;;12.53;6.63;;;;;;;1.88;100.00;101692.16;4997791;28;20045;-78
2022/03/28 02:16:13;;;;;;;10.53;6.00;;;;;;;1.92;100.00;101683.59;4993195;28;20108;-77
2022/03/28 02:18:40;;;;;;;9.37;5.53;;;;;;;1.82;100.00;101691.97;4988501;28;20149;-78
2022/03/28 02:21:07;;;;;;;11.60;5.80;;;;;;;1.78;100.00;101682.31;4974149;28;20054;-78
2022/03/28 02:23:33;;;;;;;11.23;5.43;;;;;;;1.75;100.00;101682.19;4990858;28;20388;-77
2022/03/28 02:26:00;;;;;;;10.20;6.33;;;;;;;1.67;100.00;101679.34;4992666;28;20062;-77
2022/03/28 02:28:27;;;;;;;9.03;5.33;;;;;;;1.61;100.00;101676.56;5005523;28;20050;-77
2022/03/28 02:30:54;;;;;;;14.27;5.73;;;;;;;1.60;100.00;101665.25;4991605;28;20054;-77
2022/03/28 02:33:21;;;;;;;7.93;5.30;;;;;;;1.55;100.00;101665.94;4991586;28;20042;-77
2022/03/28 02:35:48;;;;;;;9.03;5.60;;;;;;;1.52;100.00;101671.06;4994335;28;20574;-78
2022/03/28 02:38:15;;;;;;;12.63;7.13;;;;;;;1.51;100.00;101667.53;4992330;28;20492;-78
2022/03/28 02:40:42;;;;;;;12.23;6.50;;;;;;;1.47;100.00;101676.09;4991322;28;20240;-78
2022/03/28 02:43:08;;;;;;;11.27;6.50;;;;;;;1.47;100.00;101668.28;5008103;28;20591;-77
2022/03/28 02:45:36;;;;;;;8.93;5.97;;;;;;;1.39;100.00;101677.56;4994497;28;20042;-78
2022/03/28 02:48:04;;;;;;;9.47;5.57;;;;;;;1.38;100.00;101675.78;4992806;28;20599;-77
2022/03/28 02:50:33;;;;;;;9.20;5.20;;;;;;;1.42;100.00;101672.44;4987424;28;20043;-78
2022/03/28 02:53:00;;;;;;;9.30;5.77;;;;;;;1.39;100.00;101669.75;4972609;28;20042;-78
2022/03/28 02:55:27;;;;;;;10.13;6.10;;;;;;;1.39;100.00;101665.44;4972270;28;20094;-77
2022/03/28 02:57:54;;;;;;;11.50;6.07;;;;;;;1.43;100.00;101669.03;4981769;28;20046;-77
2022/03/28 03:00:21;;;;;;;11.20;6.10;;;;;;;1.37;100.00;101667.09;4974721;28;20042;-77
2022/03/28 03:02:47;;;;;;;10.87;6.87;;;;;;;1.33;100.00;101675.63;4991029;28;20042;-77
2022/03/28 03:05:14;;;;;;;9.47;5.57;;;;;;;1.27;100.00;101662.44;4981791;28;20565;-77
2022/03/28 03:07:41;;;;;;;11.93;5.97;;;;;;;1.29;100.00;101662.47;4979472;28;20046;-77
2022/03/28 03:10:09;;;;;;;9.37;5.53;;;;;;;1.25;100.00;101660.59;5000958;28;20039;-77
2022/03/28 03:12:35;;;;;;;11.90;5.93;;;;;;;1.24;100.00;101662.31;4988826;28;20038;-78
2022/03/28 03:15:03;;;;;;;13.67;6.00;;;;;;;1.21;100.00;101667.44;4973861;28;20050;-77
2022/03/28 03:17:29;;;;;;;10.90;6.53;;;;;;;1.24;100.00;101664.03;4974002;28;20423;-78
2022/03/28 03:19:56;;;;;;;12.60;7.27;;;;;;;1.18;100.00;101661.22;4993774;28;20096;-77
2022/03/28 03:22:23;;;;;;;10.40;5.30;;;;;;;1.11;100.00;101663.63;4975045;28;20419;-77
2022/03/28 03:24:50;;;;;;;11.10;5.97;;;;;;;1.12;100.00;101662.78;4970225;28;20108;-77
2022/03/28 03:27:16;;;;;;;10.37;5.90;;;;;;;1.07;100.00;101658.25;4981145;28;20049;-77
2022/03/28 03:29:43;;;;;;;11.10;6.63;;;;;;;1.01;100.00;101651.16;4978131;28;20508;-78
2022/03/28 03:32:10;;;;;;;14.10;6.37;;;;;;;1.00;100.00;101656.28;5010156;28;20042;-77
2022/03/28 03:34:37;;;;;;;10.67;6.20;;;;;;;1.00;100.00;101646.75;5008211;28;20042;-77
2022/03/28 03:37:04;;;;;;;14.40;6.80;;;;;;;0.97;100.00;101648.38;4990566;28;20431;-77
2022/03/28 03:39:30;;;;;;;13.00;6.10;;;;;;;0.94;100.00;101645.69;4990149;28;20054;-77
2022/03/28 03:41:58;;;;;;;10.90;6.80;;;;;;;0.90;100.00;101639.47;4991156;28;20054;-77
2022/03/28 03:44:25;;;;;;;10.00;6.40;;;;;;;0.84;100.00;101631.44;4975181;28;20097;-77
2022/03/28 03:46:51;;;;;;;11.93;6.60;;;;;;;0.79;100.00;101628.69;4971404;28;20046;-77
2022/03/28 03:49:18;;;;;;;10.10;6.30;;;;;;;0.83;100.00;101638.38;5005897;28;20046;-77
2022/03/28 03:51:45;;;;;;;13.30;6.43;;;;;;;0.87;100.00;101636.78;5001627;28;20045;-77
2022/03/28 03:54:12;;;;;;;15.07;6.80;;;;;;;0.79;100.00;101635.63;4992528;28;20041;-77
2022/03/28 03:56:39;;;;;;;14.30;7.17;;;;;;;0.80;100.00;101627.88;4988720;28;20051;-77
2022/03/28 03:59:05;;;;;;;16.37;6.87;;;;;;;0.86;100.00;101634.13;5006511;28;20045;-77
2022/03/28 04:01:32;;;;;;;10.40;6.57;;;;;;;0.73;100.00;101627.59;4988859;28;20045;-77
2022/03/28 04:03:59;;;;;;;15.60;6.83;;;;;;;0.70;100.00;101630.09;4988052;28;20093;-76
2022/03/28 04:06:26;;;;;;;15.77;7.60;;;;;;;0.69;100.00;101626.63;5001139;28;20039;-77
2022/03/28 04:08:52;;;;;;;11.50;5.90;;;;;;;0.71;100.00;101627.56;5004701;28;20108;-77
2022/03/28 04:11:19;;;;;;;12.87;6.87;;;;;;;0.58;100.00;101627.94;5006056;28;20463;-76
2022/03/28 04:13:46;;;;;;;13.23;6.60;;;;;;;0.55;100.00;101625.25;4992186;28;20035;-76
2022/03/28 04:16:12;;;;;;;14.70;6.73;;;;;;;0.51;100.00;101619.06;4997987;28;20570;-76
2022/03/28 04:18:39;;;;;;;13.80;6.53;;;;;;;0.57;100.00;101624.44;4996853;28;20415;-75
2022/03/28 04:21:05;;;;;;;11.53;6.20;;;;;;;0.47;100.00;101616.28;4986911;28;20039;-76
2022/03/28 04:23:32;;;;;;;12.57;6.73;;;;;;;0.42;100.00;101612.63;4967474;28;20078;-77
2022/03/28 04:25:59;;;;;;;13.50;6.97;;;;;;;0.52;100.00;101620.81;5003502;28;20038;-76
2022/03/28 04:28:26;;;;;;;15.63;7.00;;;;;;;0.51;100.00;101619.06;4991478;28;20046;-76
2022/03/28 04:30:52;;;;;;;10.60;6.43;;;;;;;0.45;100.00;101612.75;4971512;28;20125;-75
2022/03/28 04:33:19;;;;;;;13.73;7.20;;;;;;;0.50;100.00;101619.88;4987730;28;20078;-75
2022/03/28 04:35:46;;;;;;;17.40;7.93;;;;;;;0.57;100.00;101615.78;4975141;28;20096;-77
2022/03/28 04:38:13;;;;;;;13.67;7.57;;;;;;;0.75;100.00;101616.41;4990147;28;20057;-75
2022/03/28 04:40:40;;;;;;;13.63;8.10;;;;;;;0.80;100.00;101619.19;4990774;28;20100;-75
2022/03/28 04:43:07;;;;;;;16.20;7.97;;;;;;;0.84;100.00;101611.56;4974971;28;20038;-76
2022/03/28 04:45:34;;;;;;;12.87;7.90;;;;;;;0.89;100.00;101611.69;4991567;28;20639;-77
2022/03/28 04:48:01;;;;;;;16.47;8.43;;;;;;;0.90;100.00;101613.44;4996051;28;20043;-76
2022/03/28 04:50:35;;;;;;;12.03;6.63;;;;;;;0.92;100.00;101622.19;4987685;28;20143;-77
2022/03/28 04:53:17;;;;;;;15.57;6.93;;;;;;;1.05;100.00;101611.38;4997613;28;20558;-77
2022/03/28 04:55:46;;;;;;;14.33;8.43;;;;;;;1.32;100.00;101606.19;4993491;28;20566;-76
2022/03/28 04:58:16;;;;;;;14.87;8.90;;;;;;;1.49;100.00;101606.72;4983264;28;20091;-76
2022/03/28 05:00:43;;;;;;;18.97;9.47;;;;;;;1.63;100.00;101615.84;4991356;28;20074;-76
2022/03/28 05:03:10;;;;;;;21.30;10.73;;;;;;;1.76;100.00;101601.47;4992416;28;20092;-74
2022/03/28 05:05:36;;;;;;;21.83;11.07;;;;;;;2.15;100.00;101598.28;4995781;28;20046;-75
2022/03/28 05:08:03;;;;;;;23.43;11.47;;;;;;;2.15;100.00;101596.56;4974159;28;20053;-76
2022/03/28 05:10:35;;;;;;;24.50;11.73;;;;;;;2.25;100.00;101593.34;4976336;28;20050;-77
2022/03/28 05:13:02;;;;;;;25.07;11.13;;;;;;;2.32;100.00;101597.03;4985429;28;20042;-76
2022/03/28 05:15:28;;;;;;;22.83;11.43;;;;;;;2.37;100.00;101602.38;4990477;28;20043;-76
2022/03/28 05:17:55;;;;;;;23.00;10.13;;;;;;;2.42;100.00;101596.44;4964470;28;20053;-76
2022/03/28 05:20:21;;;;;;;22.73;11.50;;;;;;;2.50;100.00;101597.53;4967336;28;20053;-75
2022/03/28 05:22:50;;;;;;;21.73;11.27;;;;;;;2.55;100.00;101600.28;4976931;28;20061;-74
2022/03/28 05:25:17;;;;;;;24.10;11.20;;;;;;;2.58;100.00;101605.56;5000028;28;20101;-76
2022/03/28 05:27:44;;;;;;;25.63;11.70;;;;;;;2.64;100.00;101604.88;4990136;28;20100;-76
2022/03/28 05:30:12;;;;;;;25.47;12.00;;;;;;;2.72;100.00;101608.56;4973429;28;20050;-75
2022/03/28 05:32:39;;;;;;;21.63;11.97;;;;;;;2.70;100.00;101611.13;4990937;28;20051;-75
2022/03/28 05:35:06;;;;;;;24.77;11.73;;;;;;;2.86;100.00;101606.28;4973830;28;20049;-76
2022/03/28 05:37:34;;;;;;;22.50;11.93;;;;;;;2.95;100.00;101610.06;4988522;28;20124;-76
2022/03/28 05:40:02;;;;;;;19.47;10.67;;;;;;;2.98;100.00;101598.78;4997584;28;20137;-76
2022/03/28 05:42:28;;;;;;;33.83;13.03;;;;;;;3.00;100.00;101594.50;4992854;28;20093;-76
2022/03/28 05:44:55;;;;;;;20.63;10.67;;;;;;;3.04;100.00;101584.19;4984816;28;20140;-76
2022/03/28 05:47:21;;;;;;;24.07;11.53;;;;;;;3.07;100.00;101592.06;4983300;28;20499;-76
2022/03/28 05:49:48;;;;;;;23.13;10.43;;;;;;;3.06;100.00;101600.75;4977943;28;20062;-76
2022/03/28 05:52:15;;;;;;;22.60;10.73;;;;;;;3.17;100.00;101589.69;4965376;28;20105;-75
2022/03/28 05:54:41;;;;;;;20.57;11.47;;;;;;;3.19;100.00;101595.81;4975705;28;20031;-76
2022/03/28 05:57:08;;;;;;;24.80;11.17;;;;;;;3.22;100.00;101586.34;4991534;28;20058;-76
2022/03/28 05:59:35;;;;;;;18.83;10.67;;;;;;;3.36;100.00;101591.88;4985276;28;20104;-75
2022/03/28 06:02:01;;;;;;;17.07;10.37;;;;;;;3.37;100.00;101578.88;4987953;28;20053;-75
2022/03/28 06:04:28;;;;;;;21.60;9.73;;;;;;;3.34;100.00;101583.13;4979204;28;20138;-75
2022/03/28 06:06:55;;;;;;;28.50;10.17;;;;;;;3.36;100.00;101582.34;5002647;28;20054;-76
2022/03/28 06:09:21;;;;;;;16.13;9.93;;;;;;;3.49;100.00;101577.41;4972195;28;20043;-76
2022/03/28 06:11:48;;;;;;;18.30;9.83;;;;;;;3.52;100.00;101573.09;4975624;28;20101;-75
2022/03/28 06:14:15;;;;;;;15.43;8.47;;;;;;;3.51;100.00;101580.91;4992278;28;20034;-76
2022/03/28 06:16:41;;;;;;;19.40;10.40;;;;;;;3.58;100.00;101577.59;4973648;28;20057;-75
2022/03/28 06:19:08;;;;;;;14.53;8.87;;;;;;;3.54;100.00;101581.00;4991122;28;20132;-76
2022/03/28 06:21:35;;;;;;;17.27;9.87;;;;;;;3.66;100.00;101583.88;4975708;28;20064;-76
2022/03/28 06:24:05;;;;;;;17.07;9.37;;;;;;;3.73;100.00;101579.69;4990027;28;20096;-76
2022/03/28 06:26:32;;;;;;;15.90;8.33;;;;;;;3.70;100.00;101572.66;5007983;28;20046;-76
2022/03/28 06:28:58;;;;;;;15.67;9.03;;;;;;;3.80;100.00;101571.13;4990635;28;20054;-76
2022/03/28 06:31:25;;;;;;;15.13;7.40;;;;;;;3.85;100.00;101574.72;4975481;28;20046;-77
2022/03/28 06:33:52;;;;;;;14.73;8.47;;;;;;;3.89;100.00;101569.59;4974060;28;20659;-76
2022/03/28 06:36:19;;;;;;;18.00;8.10;;;;;;;3.95;100.00;101566.22;4975870;28;20057;-76
2022/03/28 06:38:46;;;;;;;14.77;8.43;;;;;;;4.03;100.00;101567.25;4965809;28;20047;-76
2022/03/28 06:41:13;;;;;;;14.87;8.50;;;;;;;4.17;100.00;101565.81;4974738;28;20054;-76
2022/03/28 06:43:40;;;;;;;15.27;8.37;;;;;;;4.15;100.00;101569.25;4974580;28;20046;-76
2022/03/28 06:46:06;;;;;;;14.00;8.37;;;;;;;4.15;100.00;101564.91;4991536;28;20046;-75
2022/03/28 06:48:34;;;;;;;14.23;7.97;;;;;;;4.35;100.00;101557.44;4974114;28;20042;-77
2022/03/28 06:51:01;;;;;;;13.27;7.63;;;;;;;4.34;100.00;101547.81;4974851;28;20042;-75
2022/03/28 06:53:28;;;;;;;12.30;7.20;;;;;;;4.35;100.00;101552.19;4973904;28;20050;-75
2022/03/28 06:55:54;;;;;;;10.43;6.30;;;;;;;4.37;100.00;101542.69;4984042;28;20038;-77
2022/03/28 06:58:21;;;;;;;13.33;7.60;;;;;;;4.41;100.00;101548.84;4973345;28;20038;-76
2022/03/28 07:00:48;;;;;;;14.93;7.90;;;;;;;4.50;100.00;101534.19;4990148;28;20042;-77
2022/03/28 07:03:15;;;;;;;16.33;8.13;;;;;;;4.72;100.00;101530.22;5006982;28;20042;-76
2022/03/28 07:05:44;;;;;;;11.13;6.70;;;;;;;4.75;100.00;101530.25;4990963;28;20049;-77
2022/03/28 07:08:12;;;;;;;11.93;7.73;;;;;;;4.65;100.00;101530.09;4975107;28;20096;-76
2022/03/28 07:10:40;;;;;;;11.40;6.17;;;;;;;4.84;100.00;101532.16;4999503;28;20125;-75
2022/03/28 07:13:06;;;;;;;64.80;12.50;;;;;;;5.05;100.00;101529.03;4973797;28;20112;-77
2022/03/28 07:15:33;;;;;;;11.20;6.27;;;;;;;5.22;100.00;101518.81;4990499;28;20038;-77
2022/03/28 07:18:06;;;;;;;11.70;6.40;;;;;;;5.31;100.00;101524.19;4987444;28;20055;-76
2022/03/28 07:20:33;;;;;;;11.27;6.27;;;;;;;5.42;100.00;101522.59;4969755;28;20043;-77
2022/03/28 07:23:01;;;;;;;11.60;5.97;;;;;;;5.49;100.00;101511.34;4972256;28;20074;-75
2022/03/28 07:25:28;;;;;;;10.87;6.20;;;;;;;5.59;100.00;101507.97;4987485;28;20049;-76
2022/03/28 07:27:55;;;;;;;13.10;6.80;;;;;;;5.72;100.00;101506.41;4974666;28;20051;-77
2022/03/28 07:30:22;;;;;;;12.10;6.70;;;;;;;5.88;100.00;101499.59;4978839;28;20050;-76
2022/03/28 07:32:53;;;;;;;10.67;6.97;;;;;;;5.99;100.00;101502.41;4990407;28;20507;-77
2022/03/28 07:35:20;;;;;;;12.87;6.80;;;;;;;6.14;100.00;101499.94;4989633;28;20053;-78
2022/03/28 07:37:48;;;;;;;8.30;5.80;;;;;;;6.38;100.00;101499.31;4973969;28;20050;-76
2022/03/28 07:40:15;;;;;;;10.37;5.73;;;;;;;6.36;100.00;101503.66;4954219;28;20050;-76
2022/03/28 07:42:42;;;;;;;9.90;5.93;;;;;;;6.36;100.00;101494.03;4975007;28;20054;-75
2022/03/28 07:45:09;;;;;;;9.40;5.80;;;;;;;6.46;100.00;101487.13;5038908;22;20049;-81
2022/03/28 07:47:37;;;;;;;11.23;5.87;;;;;;;6.64;100.00;101492.59;5011046;28;20470;-79
2022/03/28 07:50:04;;;;;;;11.23;7.30;;;;;;;6.62;97.74;101490.78;5012722;28;20125;-82
2022/03/28 07:52:32;;;;;;;10.80;6.10;;;;;;;6.84;100.00;101486.59;4994308;28;20057;-80
2022/03/28 07:55:00;;;;;;;9.20;6.10;;;;;;;6.99;100.00;101487.59;4979644;28;20070;-81
2022/03/28 07:57:28;;;;;;;11.70;5.60;;;;;;;7.19;96.75;101479.84;4968248;28;20093;-80
2022/03/28 07:59:55;;;;;;;8.17;5.57;;;;;;;7.37;95.70;101475.56;4978524;28;20046;-80
2022/03/28 08:02:42;;;;;;;9.80;5.87;;;;;;;7.42;94.55;101477.38;5005011;28;20042;-82
2022/03/28 08:05:10;;;;;;;11.57;6.10;;;;;;;7.44;95.81;101475.63;4975528;28;20108;-82
2022/03/28 08:07:37;;;;;;;9.33;5.87;;;;;;;7.43;93.89;101465.97;4979004;28;20096;-82
2022/03/28 08:10:05;;;;;;;7.67;5.70;;;;;;;6.95;91.01;101474.41;4961103;28;20558;-82
2022/03/28 08:12:33;;;;;;;10.90;5.13;;;;;;;7.14;93.62;101473.66;4969238;28;20050;-81
2022/03/28 08:14:59;;;;;;;9.67;5.27;;;;;;;7.30;95.76;101472.91;4964736;28;20048;-82
2022/03/28 08:17:26;;;;;;;8.67;5.70;;;;;;;7.48;90.96;101474.78;4982189;28;20053;-82
2022/03/28 08:19:53;;;;;;;8.77;5.97;;;;;;;7.49;90.67;101465.13;4970685;28;20070;-82
2022/03/28 08:22:19;;;;;;;9.33;5.30;;;;;;;7.44;90.20;101459.84;4964153;28;20437;-82
2022/03/28 08:24:46;;;;;;;8.87;6.10;;;;;;;7.45;91.40;101458.09;4997116;28;20038;-80
2022/03/28 08:27:13;;;;;;;11.43;5.90;;;;;;;7.53;93.82;101453.75;4979342;28;20050;-80
2022/03/28 08:29:39;;;;;;;8.60;5.60;;;;;;;7.48;92.23;101450.22;4979598;28;20038;-81
2022/03/28 08:32:06;;;;;;;7.20;5.20;;;;;;;7.58;89.56;101459.94;4979480;28;20046;-79
2022/03/28 08:34:36;;;;;;;8.97;5.73;;;;;;;7.49;89.46;101452.00;4979987;28;20042;-81
2022/03/28 08:37:03;;;;;;;14.33;5.30;;;;;;;7.50;91.66;101448.50;4975558;28;20049;-79
2022/03/28 08:39:30;;;;;;;8.10;5.50;;;;;;;7.45;90.55;101445.81;4978875;28;20407;-81
2022/03/28 08:41:57;;;;;;;8.30;5.57;;;;;;;7.47;90.84;101438.81;4982962;28;20101;-83
2022/03/28 08:44:26;;;;;;;8.30;5.50;;;;;;;7.48;89.52;101431.81;4982644;28;20287;-84
2022/03/28 08:46:55;;;;;;;9.27;5.33;;;;;;;7.49;90.35;101430.97;4980323;28;20069;-83
2022/03/28 08:49:22;;;;;;;8.47;5.83;;;;;;;7.69;89.82;101431.03;4979946;28;20042;-82
2022/03/28 08:51:51;;;;;;;7.30;4.97;;;;;;;7.77;88.64;101431.94;4981319;28;20060;-83
2022/03/28 08:54:18;;;;;;;8.13;4.90;;;;;;;7.90;87.74;101445.16;4986192;28;20120;-83
2022/03/28 08:56:46;;;;;;;8.63;5.07;;;;;;;8.01;86.09;101423.25;4983439;28;20074;-82
2022/03/28 08:59:13;;;;;;;8.03;4.93;;;;;;;8.16;86.08;101424.16;4968227;28;20054;-82
2022/03/28 09:01:41;;;;;;;7.68;4.80;;;;;;;8.45;83.94;101423.31;4952488;28;20075;-82
2022/03/28 09:04:09;;;;;;;9.47;5.30;;;;;;;8.66;82.29;101427.69;4978421;28;20122;-81
2022/03/28 09:06:37;;;;;;;6.30;4.72;;;;;;;8.79;80.60;101418.91;4977415;28;20125;-82
2022/03/28 09:09:32;;;;;;;7.38;4.70;;;;;;;9.01;81.78;101418.03;4991790;28;20101;-83
2022/03/28 09:12:05;;;;;;;9.93;5.43;;;;;;;9.34;78.79;101418.81;4978362;28;20739;-84
2022/03/28 09:14:34;;;;;;;6.80;4.35;;;;;;;9.59;75.87;101409.94;4975030;28;20046;-82
2022/03/28 09:17:06;;;;;;;37.88;6.82;;;;;;;9.72;75.05;101417.78;4993933;28;20050;-80
2022/03/28 09:19:55;;;;;;;6.13;4.57;;;;;;;9.98;74.72;101415.84;4975451;28;20411;-82
2022/03/28 09:22:30;;;;;;;8.02;5.05;;;;;;;10.28;73.62;101406.91;4959426;28;20503;-82
2022/03/28 09:25:06;;;;;;;6.45;4.63;;;;;;;10.59;72.28;101396.94;4975165;28;20595;-82
2022/03/28 09:27:36;;;;;;;8.50;5.00;;;;;;;10.81;70.03;101396.75;4991765;28;20404;-83
2022/03/28 09:30:10;;;;;;;6.97;4.65;;;;;;;11.02;68.48;101393.91;4995715;28;20054;-81
2022/03/28 09:32:53;;;;;;;6.90;4.22;;;;;;;11.23;68.43;101383.09;4991396;28;20039;-82
2022/03/28 09:35:24;;;;;;;6.43;4.32;;;;;;;11.57;66.35;101387.97;4962332;28;20061;-81
2022/03/28 09:38:02;;;;;;;7.05;5.00;;;;;;;11.66;64.47;101377.25;4979788;28;20498;-82
2022/03/28 09:40:39;;;;;;;8.70;5.18;;;;;;;11.88;64.67;101375.22;4979470;28;20125;-82
2022/03/28 09:43:25;;;;;;;6.95;4.55;;;;;;;12.01;63.32;101362.66;4994356;28;20050;-82
2022/03/28 09:45:54;;;;;;;8.80;4.85;;;;;;;12.16;63.36;101366.84;4972918;28;20047;-81
2022/03/28 09:48:24;;;;;;;5.80;4.40;;;;;;;12.30;61.56;101357.81;4959405;28;20507;-81
2022/03/28 09:51:03;;;;;;;8.50;4.38;;;;;;;12.56;61.74;101349.41;4964418;28;20096;-82
2022/03/28 09:53:40;;;;;;;5.82;3.85;;;;;;;12.66;60.63;101350.97;4974362;28;20058;-82
2022/03/28 09:56:09;;;;;;;6.13;3.97;;;;;;;12.87;59.82;101340.91;4951144;28;20324;-82
2022/03/28 09:58:49;;;;;;;7.70;4.88;;;;;;;12.91;58.17;101342.56;4964561;28;20065;-80
2022/03/28 10:01:15;;;;;;;8.23;5.07;;;;;;;13.14;58.47;101343.00;4988737;28;20043;-85
2022/03/28 10:03:44;;;;;;;6.95;4.95;;;;;;;13.26;57.97;101341.03;4972171;28;20039;-84
2022/03/28 10:06:12;;;;;;;8.93;4.93;;;;;;;13.37;57.58;101347.88;4975455;28;20078;-83
2022/03/28 10:08:39;;;;;;;5.75;4.63;;;;;;;13.45;56.79;101332.66;4995106;28;20486;-85
2022/03/28 10:11:06;;;;;;;7.65;4.90;;;;;;;13.38;56.42;101331.03;4961856;28;20057;-83
2022/03/28 10:13:33;;;;;;;22.02;6.03;;;;;;;13.40;56.47;101329.22;4962251;28;20054;-83
2022/03/28 10:16:02;;;;;;;7.95;4.97;;;;;;;13.01;55.60;101322.03;4973522;28;20035;-83
2022/03/28 10:18:31;;;;;;;7.80;4.70;;;;;;;13.35;55.65;101327.56;4964420;28;20062;-85
2022/03/28 10:21:00;;;;;;;7.03;5.40;;;;;;;13.32;55.16;101314.38;4976837;28;20042;-83
2022/03/28 10:23:33;;;;;;;7.15;5.13;;;;;;;13.57;54.17;101309.41;4959631;28;20718;-85
2022/03/28 10:26:02;;;;;;;6.30;4.60;;;;;;;13.84;53.15;101307.88;4993711;28;20392;-84
2022/03/28 10:28:28;;;;;;;7.72;5.25;;;;;;;13.95;54.41;101304.06;4975600;28;20050;-84
2022/03/28 10:31:11;;;;;;;6.43;4.93;;;;;;;13.92;52.83;101306.78;4981809;28;20050;-88
2022/03/28 10:33:58;;;;;;;8.00;5.35;;;;;;;13.79;52.31;101305.34;4968765;28;20047;-87
2022/03/28 10:36:30;;;;;;;6.93;5.82;;;;;;;14.05;52.75;101289.66;4966676;28;20062;-86
2022/03/28 10:39:33;;;;;;;10.10;5.95;;;;;;;14.30;52.75;101307.66;4965492;28;20051;-84
2022/03/28 10:42:24;;;;;;;8.40;6.20;;;;;;;14.51;52.36;101306.22;4966266;28;20069;-84
2022/03/28 10:45:03;;;;;;;11.23;6.45;;;;;;;14.50;52.12;101292.06;4992755;28;20093;-84
2022/03/28 10:47:47;;;;;;;10.80;6.78;;;;;;;14.72;51.53;101278.22;4975711;28;20034;-84
2022/03/28 10:50:21;;;;;;;11.40;7.03;;;;;;;14.82;51.12;101282.34;4991107;28;20042;-85
2022/03/28 10:53:08;;;;;;;10.50;7.45;;;;;;;14.72;50.94;101272.88;4981816;28;20068;-87
2022/03/28 10:55:46;;;;;;;12.13;7.78;;;;;;;14.66;50.03;101273.91;4966151;28;20140;-84
2022/03/28 10:58:14;;;;;;;10.35;7.10;;;;;;;14.59;51.72;101275.88;4958291;28;20097;-85
2022/03/28 11:01:06;;;;;;;12.52;8.88;;;;;;;14.75;51.49;101271.00;4977154;28;20046;-86
2022/03/28 11:03:41;;;;;;;10.25;7.68;;;;;;;14.85;50.06;101259.19;4985332;28;20045;-86
2022/03/28 11:06:08;;;;;;;11.20;7.60;;;;;;;14.41;47.32;101264.81;4960268;28;20394;-86
2022/03/28 11:08:42;;;;;;;11.52;7.47;;;;;;;14.14;48.27;101250.47;4973212;28;20457;-82
2022/03/28 11:11:20;;;;;;;12.75;7.88;;;;;;;14.57;49.20;101251.13;4956933;28;20053;-85
2022/03/28 11:14:08;;;;;;;9.95;7.50;;;;;;;14.59;49.57;101240.44;4956779;28;20066;-84
2022/03/28 11:17:17;;;;;;;12.77;7.47;;;;;;;14.93;48.84;101219.06;4971894;28;20046;-83
2022/03/28 11:20:01;;;;;;;11.27;7.35;;;;;;;15.04;47.21;101219.59;4932322;28;20112;-81
2022/03/28 11:22:44;;;;;;;9.80;6.67;;;;;;;15.28;47.66;101220.66;4986639;28;20496;-81
2022/03/28 11:25:26;;;;;;;12.30;7.38;;;;;;;15.23;44.99;101221.72;4975506;28;20034;-81
2022/03/28 11:28:19;;;;;;;11.05;7.30;;;;;;;14.63;47.01;101211.06;4983237;28;20052;-83
2022/03/28 11:30:45;;;;;;;11.15;7.72;;;;;;;15.10;47.53;101203.44;4955277;28;20054;-84
2022/03/28 11:33:26;;;;;;;10.23;7.07;;;;;;;15.01;46.07;101211.72;4971434;28;20054;-80